Time;durP1;ratioP1;P1;durP2;ratioP2;P2;SDS_P1;SDS_P2;PMS_P1;PMS_P2;Temp;Humidity;BMP_temperature;BMP_pressure;BME280_temperature;BME280_humidity;BME280_pressure;Samples;Min_cycle;Max_cycle;Signal;HPM_P1;HPM_P2
2022/10/08 00:01:03;;;;;;;13.73;7.22;;;;;12.60;94373.00;;;;7392119;19;20168;-78
2022/10/08 00:03:39;;;;;;;16.30;6.97;;;;;12.80;94364.00;;;;7394556;19;20188;-77
2022/10/08 00:06:28;;;;;;;10.90;6.93;;;;;12.70;94365.00;;;;7394137;19;20135;-78
2022/10/08 00:09:13;;;;;;;12.77;7.53;;;;;12.90;94362.00;;;;7392465;19;20152;-78
2022/10/08 00:11:41;;;;;;;14.23;6.68;;;;;13.00;94368.00;;;;7392329;19;20770;-77
2022/10/08 00:14:15;;;;;;;12.05;6.55;;;;;12.90;94368.00;;;;7393742;19;20210;-78
2022/10/08 00:16:45;;;;;;;10.05;6.80;;;;;13.10;94373.00;;;;7393744;19;20139;-78
2022/10/08 00:19:16;;;;;;;12.93;6.30;;;;;13.10;94368.00;;;;7393087;19;20208;-77
2022/10/08 00:21:52;;;;;;;9.95;6.25;;;;;13.10;94371.00;;;;7394890;19;20642;-80
2022/10/08 00:24:20;;;;;;;12.85;6.20;;;;;13.00;94372.00;;;;7392795;19;20137;-77
2022/10/08 00:26:47;;;;;;;12.07;5.90;;;;;13.00;94368.00;;;;7390915;19;20595;-79
2022/10/08 00:29:21;;;;;;;12.20;6.22;;;;;12.90;94372.00;;;;7392868;19;20503;-80
2022/10/08 00:31:49;;;;;;;14.90;6.03;;;;;12.90;94364.00;;;;7393491;19;20137;-79
2022/10/08 00:34:21;;;;;;;10.00;6.25;;;;;12.80;94361.00;;;;7393915;19;20192;-78
2022/10/08 00:37:00;;;;;;;9.82;5.85;;;;;12.80;94369.00;;;;7393776;19;20148;-77
2022/10/08 00:39:27;;;;;;;12.38;6.00;;;;;12.80;94354.00;;;;7392186;19;20137;-78
2022/10/08 00:41:55;;;;;;;10.48;5.40;;;;;12.70;94361.00;;;;7392429;19;20627;-78
2022/10/08 00:44:53;;;;;;;10.30;6.10;;;;;12.60;94360.00;;;;7391727;19;20136;-77
2022/10/08 00:47:33;;;;;;;7.00;5.88;;;;;12.60;94358.00;;;;7392425;19;20141;-78
2022/10/08 00:50:18;;;;;;;17.95;6.13;;;;;12.60;94355.00;;;;7394405;19;20757;-78
2022/10/08 00:52:57;;;;;;;13.13;6.57;;;;;12.70;94353.00;;;;7393007;19;20471;-78
2022/10/08 00:55:32;;;;;;;12.50;6.10;;;;;12.70;94347.00;;;;7392498;19;20129;-77
2022/10/08 00:58:08;;;;;;;15.38;6.30;;;;;12.70;94351.00;;;;7394434;19;20149;-77
2022/10/08 01:00:49;;;;;;;11.85;5.65;;;;;12.60;94345.00;;;;7390995;19;20563;-78
2022/10/08 01:03:25;;;;;;;11.10;6.03;;;;;12.60;94349.00;;;;7394561;19;20496;-78
2022/10/08 01:06:21;;;;;;;13.57;6.45;;;;;12.60;94345.00;;;;7395586;19;20136;-79
2022/10/08 01:09:04;;;;;;;13.23;5.75;;;;;12.80;94339.00;;;;7394566;19;20728;-79
2022/10/08 01:12:07;;;;;;;12.48;6.28;;;;;12.70;94352.00;;;;7395611;19;20156;-78
2022/10/08 01:14:59;;;;;;;11.45;6.38;;;;;12.70;94337.00;;;;7395734;19;20132;-79
2022/10/08 01:17:39;;;;;;;10.32;5.60;;;;;12.70;94342.00;;;;7394394;19;20137;-79
2022/10/08 01:20:23;;;;;;;11.43;5.88;;;;;12.80;94343.00;;;;7394517;19;20860;-79
2022/10/08 01:23:24;;;;;;;11.50;6.28;;;;;12.80;94343.00;;;;7394316;19;20154;-80
2022/10/08 01:26:08;;;;;;;9.18;5.82;;;;;12.70;94332.00;;;;7395797;19;20592;-78
2022/10/08 01:28:51;;;;;;;13.18;6.40;;;;;12.70;94333.00;;;;7396312;19;20136;-79
2022/10/08 01:31:36;;;;;;;11.77;5.60;;;;;12.70;94337.00;;;;7398880;19;20160;-81
2022/10/08 01:34:21;;;;;;;12.85;6.15;;;;;12.70;94334.00;;;;7395657;19;20150;-81
2022/10/08 01:36:51;;;;;;;9.30;5.68;;;;;12.90;94337.00;;;;7395024;19;20133;-80
2022/10/08 01:39:30;;;;;;;9.15;5.50;;;;;12.80;94330.00;;;;7394359;19;20740;-80
2022/10/08 01:42:01;;;;;;;11.57;6.03;;;;;12.70;94322.00;;;;7400975;19;20192;-80
2022/10/08 01:44:38;;;;;;;12.32;5.63;;;;;12.70;94329.00;;;;7399315;19;20136;-80
2022/10/08 01:47:10;;;;;;;18.33;6.30;;;;;12.80;94330.00;;;;7398259;19;20141;-80
2022/10/08 01:49:54;;;;;;;13.50;5.60;;;;;12.70;94330.00;;;;7399617;19;20157;-80
2022/10/08 01:52:43;;;;;;;10.00;5.38;;;;;12.80;94330.00;;;;7397393;19;20152;-79
2022/10/08 01:55:25;;;;;;;11.05;5.60;;;;;12.70;94327.00;;;;7393938;19;20129;-79
2022/10/08 01:57:56;;;;;;;16.95;5.70;;;;;12.90;94322.00;;;;7392041;19;20143;-79
2022/10/08 02:00:41;;;;;;;11.32;5.35;;;;;13.00;94322.00;;;;7391398;19;20176;-80
2022/10/08 02:03:10;;;;;;;10.02;5.47;;;;;12.80;94317.00;;;;7392981;19;20132;-80
2022/10/08 02:05:49;;;;;;;15.75;6.28;;;;;12.90;94325.00;;;;7394637;19;20148;-80
2022/10/08 02:08:17;;;;;;;8.20;5.18;;;;;12.90;94317.00;;;;7394068;19;20148;-78
2022/10/08 02:10:51;;;;;;;7.00;5.05;;;;;12.80;94317.00;;;;7392729;19;20491;-81
2022/10/08 02:13:19;;;;;;;11.35;5.43;;;;;12.70;94325.00;;;;7392775;19;20145;-80
2022/10/08 02:16:01;;;;;;;10.32;5.68;;;;;12.70;94312.00;;;;7392134;19;20178;-81
2022/10/08 02:18:53;;;;;;;9.50;5.00;;;;;12.70;94313.00;;;;7392387;19;20522;-80
2022/10/08 02:21:27;;;;;;;10.98;5.28;;;;;12.70;94315.00;;;;7391912;19;20168;-79
2022/10/08 02:24:29;;;;;;;12.35;5.10;;;;;12.70;94320.00;;;;7393568;19;20457;-80
2022/10/08 02:27:00;;;;;;;7.50;4.72;;;;;12.80;94316.00;;;;7390063;19;20144;-79
2022/10/08 02:29:44;;;;;;;9.75;5.00;;;;;12.70;94313.00;;;;7393035;19;20140;-79
2022/10/08 02:32:22;;;;;;;7.82;5.03;;;;;12.70;94314.00;;;;7395689;19;20133;-80
2022/10/08 02:35:21;;;;;;;10.07;5.15;;;;;12.60;94314.00;;;;7395718;19;20634;-80
2022/10/08 02:38:05;;;;;;;11.00;5.22;;;;;12.60;94316.00;;;;7392214;19;20128;-79
2022/10/08 02:40:41;;;;;;;11.68;5.00;;;;;12.70;94319.00;;;;7391650;19;20723;-79
2022/10/08 02:43:15;;;;;;;12.25;5.20;;;;;12.80;94315.00;;;;7400193;19;20136;-79
2022/10/08 02:46:02;;;;;;;12.43;5.32;;;;;12.90;94310.00;;;;7404353;19;20120;-78
2022/10/08 02:48:32;;;;;;;16.30;5.72;;;;;13.10;94320.00;;;;7402700;19;20221;-78
2022/10/08 02:51:11;;;;;;;9.85;4.93;;;;;13.10;94319.00;;;;7399288;19;20646;-78
2022/10/08 02:53:40;;;;;;;10.80;5.30;;;;;13.10;94317.00;;;;7398621;19;20614;-79
2022/10/08 02:56:20;;;;;;;9.52;4.82;;;;;13.10;94322.00;;;;7399372;19;20160;-78
2022/10/08 02:58:48;;;;;;;11.05;5.65;;;;;13.10;94315.00;;;;7400547;19;20137;-79
2022/10/08 03:01:56;;;;;;;7.63;4.53;;;;;13.20;94311.00;;;;7398989;19;20168;-81
2022/10/08 03:04:30;;;;;;;16.17;4.80;;;;;13.30;94316.00;;;;7400679;19;20140;-79
2022/10/08 03:07:12;;;;;;;8.25;4.78;;;;;13.20;94315.00;;;;7397102;19;20131;-78
2022/10/08 03:09:45;;;;;;;14.15;5.50;;;;;13.10;94324.00;;;;7401673;19;20147;-79
2022/10/08 03:12:20;;;;;;;12.57;5.00;;;;;13.20;94316.00;;;;7399141;19;20491;-79
2022/10/08 03:14:49;;;;;;;14.43;5.68;;;;;13.30;94322.00;;;;7400524;19;20133;-79
2022/10/08 03:17:22;;;;;;;10.82;5.97;;;;;13.20;94328.00;;;;7399070;19;20217;-80
2022/10/08 03:19:59;;;;;;;12.38;6.13;;;;;13.20;94329.00;;;;7398331;19;20236;-78
2022/10/08 03:22:27;;;;;;;16.45;6.05;;;;;13.30;94332.00;;;;7396856;19;20208;-78
2022/10/08 03:24:55;;;;;;;16.63;6.97;;;;;13.30;94328.00;;;;7402982;19;20145;-79
2022/10/08 03:27:29;;;;;;;11.68;6.72;;;;;13.40;94333.00;;;;7398308;19;20136;-77
2022/10/08 03:29:56;;;;;;;15.18;7.47;;;;;13.40;94334.00;;;;7399740;19;20124;-81
2022/10/08 03:32:24;;;;;;;17.77;7.55;;;;;13.20;94327.00;;;;7396839;19;20133;-80
2022/10/08 03:35:00;;;;;;;12.38;6.82;;;;;13.10;94338.00;;;;7397605;19;20223;-79
2022/10/08 03:37:27;;;;;;;14.30;6.53;;;;;13.00;94340.00;;;;7401658;19;20149;-79
2022/10/08 03:39:54;;;;;;;11.45;6.75;;;;;13.00;94355.00;;;;7397848;19;20152;-80
2022/10/08 03:42:28;;;;;;;12.80;6.85;;;;;12.80;94340.00;;;;7400277;19;20601;-79
2022/10/08 03:44:55;;;;;;;15.93;7.90;;;;;13.00;94352.00;;;;7401224;19;20208;-79
2022/10/08 03:47:24;;;;;;;11.15;6.72;;;;;13.00;94355.00;;;;7400344;19;20153;-79
2022/10/08 03:49:58;;;;;;;14.45;7.70;;;;;12.90;94343.00;;;;7398166;19;20157;-79
2022/10/08 03:52:25;;;;;;;12.95;7.47;;;;;12.80;94341.00;;;;7393361;19;20167;-79
2022/10/08 03:54:53;;;;;;;11.63;7.05;;;;;12.80;94355.00;;;;7396958;19;20129;-80
2022/10/08 03:57:27;;;;;;;13.55;7.65;;;;;12.80;94353.00;;;;7399143;19;20584;-79
2022/10/08 04:00:07;;;;;;;13.43;7.43;;;;;12.70;94357.00;;;;7400359;19;20880;-79
2022/10/08 04:02:49;;;;;;;14.95;7.75;;;;;12.80;94353.00;;;;7402713;19;20179;-79
2022/10/08 04:05:17;;;;;;;16.55;7.80;;;;;12.70;94353.00;;;;7401805;19;20192;-79
2022/10/08 04:07:51;;;;;;;15.25;8.40;;;;;12.80;94351.00;;;;7400038;19;20544;-79
2022/10/08 04:10:25;;;;;;;13.82;8.80;;;;;12.60;94349.00;;;;7398850;19;20156;-79
2022/10/08 04:12:52;;;;;;;18.48;10.02;;;;;12.60;94358.00;;;;7396945;19;20583;-80
2022/10/08 04:15:29;;;;;;;12.77;8.52;;;;;12.60;94353.00;;;;7402185;19;20142;-79
2022/10/08 04:18:01;;;;;;;16.75;9.35;;;;;12.60;94349.00;;;;7397477;19;20153;-79
2022/10/08 04:20:28;;;;;;;19.23;10.13;;;;;12.70;94355.00;;;;7400606;19;20148;-79
2022/10/08 04:23:02;;;;;;;21.02;9.93;;;;;12.50;94357.00;;;;7401261;19;20665;-80
2022/10/08 04:25:30;;;;;;;15.07;8.73;;;;;12.60;94360.00;;;;7403635;19;20165;-80
2022/10/08 04:28:11;;;;;;;16.55;9.43;;;;;12.50;94359.00;;;;7399304;19;20520;-80
2022/10/08 04:31:03;;;;;;;17.30;9.50;;;;;12.50;94358.00;;;;7407446;19;20129;-80
2022/10/08 04:33:37;;;;;;;20.13;8.95;;;;;12.50;94358.00;;;;7398377;19;20244;-81
2022/10/08 04:36:24;;;;;;;20.38;8.50;;;;;12.30;94360.00;;;;7404433;19;20617;-80
2022/10/08 04:38:52;;;;;;;13.52;7.60;;;;;12.10;94355.00;;;;7408225;19;20137;-80
2022/10/08 04:41:26;;;;;;;14.00;8.52;;;;;12.20;94363.00;;;;7411825;19;20153;-80
2022/10/08 04:43:59;;;;;;;20.63;8.75;;;;;12.20;94357.00;;;;7414663;19;20149;-81
2022/10/08 04:46:41;;;;;;;19.73;8.55;;;;;12.30;94365.00;;;;7417283;19;20152;-81
2022/10/08 04:49:11;;;;;;;16.73;8.00;;;;;12.10;94360.00;;;;7414162;19;20133;-81
2022/10/08 04:51:49;;;;;;;14.02;8.30;;;;;12.00;94361.00;;;;7417133;19;20185;-80
2022/10/08 04:54:20;;;;;;;14.65;8.13;;;;;12.10;94370.00;;;;7413015;19;20222;-78
2022/10/08 04:57:02;;;;;;;16.52;8.13;;;;;12.00;94372.00;;;;7417652;19;20216;-81
2022/10/08 04:59:30;;;;;;;14.68;7.55;;;;;12.00;94372.00;;;;7405917;19;20272;-79
2022/10/08 05:02:32;;;;;;;11.38;7.35;;;;;12.00;94374.00;;;;7413782;19;20153;-80
2022/10/08 05:05:14;;;;;;;14.98;7.90;;;;;12.00;94369.00;;;;7423169;19;20165;-81
2022/10/08 05:08:09;;;;;;;17.90;7.85;;;;;11.90;94380.00;;;;7394669;19;20184;-79
2022/10/08 05:10:58;;;;;;;16.65;7.72;;;;;12.10;94377.00;;;;7419266;19;20177;-80
2022/10/08 05:13:38;;;;;;;21.35;8.27;;;;;12.10;94383.00;;;;7409725;19;20153;-77
2022/10/08 05:16:12;;;;;;;19.95;8.15;;;;;11.90;94386.00;;;;7397210;19;20152;-78
2022/10/08 05:18:51;;;;;;;15.15;7.82;;;;;12.10;94377.00;;;;7402464;19;20169;-81
2022/10/08 05:21:22;;;;;;;13.82;7.90;;;;;12.00;94371.00;;;;7402967;19;20501;-79
2022/10/08 05:24:04;;;;;;;18.88;7.78;;;;;11.70;94375.00;;;;7399386;19;20555;-81
2022/10/08 05:26:34;;;;;;;16.55;7.07;;;;;11.70;94376.00;;;;7396543;19;20156;-80
2022/10/08 05:29:24;;;;;;;11.27;6.80;;;;;11.90;94376.00;;;;7397965;19;20151;-80
2022/10/08 05:31:56;;;;;;;24.23;7.55;;;;;11.80;94375.00;;;;7400743;19;20173;-80
2022/10/08 05:34:34;;;;;;;12.40;6.57;;;;;11.80;94370.00;;;;7398482;19;20172;-81
2022/10/08 05:37:01;;;;;;;20.45;6.72;;;;;11.70;94371.00;;;;7404166;19;20149;-78
2022/10/08 05:39:28;;;;;;;12.32;6.70;;;;;11.80;94378.00;;;;7400694;19;20129;-81
2022/10/08 05:42:02;;;;;;;18.65;7.10;;;;;11.90;94382.00;;;;7405045;19;20145;-80
2022/10/08 05:44:32;;;;;;;12.45;6.10;;;;;11.70;94382.00;;;;7401751;19;20220;-81
2022/10/08 05:47:04;;;;;;;18.30;6.18;;;;;11.60;94389.00;;;;7400732;19;20185;-80
2022/10/08 05:49:37;;;;;;;15.98;6.13;;;;;11.70;94393.00;;;;7405061;19;20137;-80
2022/10/08 05:52:05;;;;;;;12.13;5.90;;;;;11.50;94387.00;;;;7402214;19;20858;-79
2022/10/08 05:54:32;;;;;;;13.70;6.10;;;;;11.40;94391.00;;;;7406457;19;20156;-79
2022/10/08 05:57:08;;;;;;;14.25;5.82;;;;;11.30;94392.00;;;;7405772;19;20160;-79
2022/10/08 05:59:36;;;;;;;11.93;6.05;;;;;11.30;94393.00;;;;7405134;19;20611;-80
2022/10/08 06:02:08;;;;;;;15.32;5.97;;;;;11.40;94394.00;;;;7401253;19;20156;-78
2022/10/08 06:04:44;;;;;;;15.77;6.13;;;;;11.40;94393.00;;;;7403021;19;20527;-81
2022/10/08 06:07:12;;;;;;;10.60;5.82;;;;;11.40;94397.00;;;;7396901;19;20188;-79
2022/10/08 06:09:39;;;;;;;10.10;5.20;;;;;11.40;94399.00;;;;7393832;19;20188;-79
2022/10/08 06:12:14;;;;;;;15.05;5.57;;;;;11.40;94401.00;;;;7396532;19;20223;-78
2022/10/08 06:14:41;;;;;;;11.02;5.40;;;;;11.50;94412.00;;;;7393713;19;20619;-80
2022/10/08 06:17:11;;;;;;;13.77;6.00;;;;;11.40;94405.00;;;;7400712;19;20169;-78
2022/10/08 06:19:46;;;;;;;12.20;6.28;;;;;11.50;94416.00;;;;7403072;19;20156;-80
2022/10/08 06:22:13;;;;;;;17.20;5.47;;;;;11.50;94416.00;;;;7403798;19;20188;-81
2022/10/08 06:24:41;;;;;;;11.95;5.25;;;;;11.60;94408.00;;;;7406113;19;20184;-81
2022/10/08 06:27:15;;;;;;;12.77;4.93;;;;;11.50;94415.00;;;;7403842;19;20151;-78
2022/10/08 06:29:42;;;;;;;11.65;5.20;;;;;11.50;94423.00;;;;7407136;19;20758;-79
2022/10/08 06:32:10;;;;;;;10.88;5.35;;;;;11.70;94416.00;;;;7402793;19;20793;-79
2022/10/08 06:34:44;;;;;;;15.32;5.57;;;;;11.60;94420.00;;;;7409737;19;20151;-79
2022/10/08 06:37:12;;;;;;;8.82;5.15;;;;;11.70;94420.00;;;;7401856;19;20152;-79
2022/10/08 06:39:39;;;;;;;12.40;4.60;;;;;11.90;94428.00;;;;7406696;19;20136;-79
2022/10/08 06:42:45;;;;;;;16.67;4.70;;;;;11.90;94433.00;;;;7414951;19;20159;-79
2022/10/08 06:45:15;;;;;;;9.80;4.40;;;;;12.10;94428.00;;;;7408797;19;20153;-80
2022/10/08 06:48:13;;;;;;;11.02;3.75;;;;;12.00;94436.00;;;;7411425;19;20519;-79
2022/10/08 06:51:15;;;;;;;9.65;3.30;;;;;12.40;94428.00;;;;7409790;19;20220;-79
2022/10/08 06:54:00;;;;;;;6.75;3.28;;;;;12.60;94428.00;;;;7418550;19;20148;-79
2022/10/08 06:57:00;;;;;;;15.82;3.63;;;;;12.80;94432.00;;;;7401147;19;20160;-78
2022/10/08 06:59:36;;;;;;;7.90;3.50;;;;;12.80;94433.00;;;;7415995;19;20156;-79
2022/10/08 07:02:16;;;;;;;11.38;3.22;;;;;12.90;94438.00;;;;7430443;19;20276;-78
2022/10/08 07:08:26;;;;;;;7.50;3.47;;;;;13.30;94439.00;;;;7418110;19;20156;-81
2022/10/08 07:11:11;;;;;;;9.38;3.60;;;;;13.40;94446.00;;;;7423565;19;20136;-81
2022/10/08 07:31:26;;;;;;;9.13;2.85;;;;;13.10;94471.00;;;;7399236;19;20554;-80
2022/10/08 07:37:31;;;;;;;11.90;3.35;;;;;13.30;94477.00;;;;7384737;19;20185;-79
2022/10/08 07:40:06;;;;;;;12.88;3.13;;;;;13.40;94487.00;;;;7417346;19;20129;-79
2022/10/08 07:42:37;;;;;;;9.55;3.13;;;;;13.30;94478.00;;;;7418500;19;20157;-78
2022/10/08 07:45:05;;;;;;;8.00;3.13;;;;;13.10;94483.00;;;;7420420;19;20464;-78
2022/10/08 07:47:39;;;;;;;9.77;2.80;;;;;13.50;94484.00;;;;7428888;19;20167;-79
2022/10/08 07:50:06;;;;;;;8.13;3.30;;;;;13.50;94487.00;;;;7417397;19;20144;-79
2022/10/08 07:52:34;;;;;;;4.65;2.83;;;;;13.50;94474.00;;;;7422021;19;20196;-82
2022/10/08 07:55:21;;;;;;;12.40;2.60;;;;;13.90;94485.00;;;;7396369;19;20217;-80
2022/10/08 07:58:08;;;;;;;15.15;2.92;;;;;13.90;94476.00;;;;7395607;19;21076;-78
2022/10/08 08:01:05;;;;;;;6.75;2.65;;;;;14.50;94484.00;;;;7462326;18;20251;31
2022/10/08 08:04:10;;;;;;;11.02;2.97;;;;;14.70;94477.00;;;;7424532;19;20144;-77
2022/10/08 08:07:04;;;;;;;10.85;2.80;;;;;15.20;94479.00;;;;7421894;19;20136;-77
2022/10/08 08:09:32;;;;;;;7.65;2.60;;;;;15.30;94490.00;;;;7425685;19;20135;-76
2022/10/08 08:12:06;;;;;;;7.45;2.50;;;;;14.90;94468.00;;;;7427654;19;20155;-77
2022/10/08 08:17:19;;;;;;;7.85;2.72;;;;;14.40;94481.00;;;;7387604;19;20209;-83
2022/10/08 08:23:10;;;;;;;8.40;3.10;;;;;14.80;94505.00;;;;7365831;19;20188;31
2022/10/08 08:26:01;;;;;;;7.47;2.75;;;;;14.10;94507.00;;;;7418232;19;20180;-80
2022/10/08 08:32:03;;;;;;;14.68;3.63;;;;;13.70;94519.00;;;;7414939;19;20184;-79
2022/10/08 08:34:48;;;;;;;6.28;2.65;;;;;13.50;94513.00;;;;7426746;19;20132;-80
2022/10/08 08:37:46;;;;;;;7.65;2.47;;;;;13.70;94518.00;;;;7410154;19;20200;-80
2022/10/08 08:54:17;;;;;;;8.13;2.20;;;;;14.60;94503.00;;;;7400311;19;20196;-80
2022/10/08 08:57:21;;;;;;;7.35;2.42;;;;;14.10;94500.00;;;;7413262;19;20221;-79
2022/10/08 09:05:37;;;;;;;8.70;2.50;;;;;14.30;94518.00;;;;7395779;19;20189;-78
2022/10/08 09:11:44;;;;;;;13.57;2.40;;;;;14.40;94529.00;;;;7363708;19;20200;31
2022/10/08 09:18:42;;;;;;;10.10;2.58;;;;;15.40;94524.00;;;;7331883;19;20187;31
2022/10/08 10:06:14;;;;;;;11.20;2.60;;;;;17.10;94539.00;;;;7403776;19;20602;-90
2022/10/08 10:09:10;;;;;;;7.68;2.97;;;;;17.70;94545.00;;;;7397498;19;20145;-90
2022/10/08 10:11:57;;;;;;;10.10;2.40;;;;;17.50;94549.00;;;;7396827;19;20576;-89
2022/10/08 10:14:27;;;;;;;13.63;2.53;;;;;16.80;94560.00;;;;7397722;19;20160;-89
2022/10/08 10:17:39;;;;;;;9.88;2.50;;;;;15.20;94569.00;;;;7392668;19;20196;-89
2022/10/08 10:29:53;;;;;;;7.60;2.33;;;;;16.20;94551.00;;;;7362424;19;20212;-85
2022/10/08 10:39:46;;;;;;;8.75;2.55;;;;;15.90;94557.00;;;;7351497;19;20208;-78
2022/10/08 10:46:03;;;;;;;9.03;2.47;;;;;16.10;94552.00;;;;7417086;19;20152;31
2022/10/08 11:23:25;;;;;;;7.80;2.30;;;;;16.40;94563.00;;;;7357252;19;20199;31
2022/10/08 11:26:26;;;;;;;9.48;2.70;;;;;17.10;94563.00;;;;7405027;19;20687;-79
2022/10/08 11:29:10;;;;;;;8.05;2.60;;;;;16.90;94556.00;;;;7402097;19;20149;-80
2022/10/08 11:31:50;;;;;;;11.27;2.33;;;;;16.30;94555.00;;;;7424308;19;20544;-80
2022/10/08 11:34:31;;;;;;;9.45;2.17;;;;;16.50;94549.00;;;;7422271;19;20160;-80
2022/10/08 11:49:29;;;;;;;8.73;2.25;;;;;17.30;94560.00;;;;7383074;19;20192;-81
2022/10/08 11:52:15;;;;;;;6.78;2.13;;;;;17.50;94544.00;;;;7394704;19;20650;-84
2022/10/08 11:54:48;;;;;;;9.73;2.47;;;;;17.10;94579.00;;;;7391232;19;20594;-83
2022/10/08 12:17:00;;;;;;;7.88;2.78;;;;;19.10;94553.00;;;;7398222;19;20121;-88
2022/10/08 12:19:37;;;;;;;6.65;2.13;;;;;18.80;94551.00;;;;7394610;19;20514;-89
2022/10/08 12:22:17;;;;;;;6.32;2.25;;;;;19.00;94559.00;;;;7397891;19;20597;-88
2022/10/08 12:24:47;;;;;;;9.77;2.55;;;;;17.80;94561.00;;;;7396113;19;20220;-94
2022/10/08 12:27:33;;;;;;;8.48;2.08;;;;;18.50;94558.00;;;;7397275;19;20129;-92
2022/10/08 12:30:16;;;;;;;5.43;2.20;;;;;18.70;94570.00;;;;7393213;19;20152;-90
2022/10/08 12:32:51;;;;;;;5.38;2.05;;;;;18.10;94565.00;;;;7396172;19;20659;-89
2022/10/08 12:35:35;;;;;;;6.07;2.10;;;;;17.50;94564.00;;;;7397322;19;20153;-88
2022/10/08 12:51:56;;;;;;;6.80;2.00;;;;;17.50;94557.00;;;;7386314;19;20192;-82
2022/10/08 12:54:32;;;;;;;5.05;1.75;;;;;17.10;94575.00;;;;7404188;19;20157;-76
2022/10/08 13:00:31;;;;;;;4.78;1.58;;;;;16.90;94565.00;;;;7374187;19;20247;-80
2022/10/08 13:17:05;;;;;;;4.28;1.60;;;;;17.90;94562.00;;;;7383073;19;20521;-88
2022/10/08 13:20:01;;;;;;;4.53;1.77;;;;;18.30;94568.00;;;;7394676;19;20167;-89
2022/10/08 13:22:35;;;;;;;9.98;1.88;;;;;18.10;94562.00;;;;7393699;19;20169;-89
2022/10/08 13:25:31;;;;;;;4.53;1.75;;;;;18.30;94561.00;;;;7394644;19;20195;-90
2022/10/08 13:28:15;;;;;;;4.57;1.55;;;;;18.40;94562.00;;;;7395703;19;20163;-91
2022/10/08 13:31:22;;;;;;;10.07;2.25;;;;;18.70;94566.00;;;;7394175;19;20148;-88
2022/10/08 13:33:52;;;;;;;7.30;1.92;;;;;18.80;94575.00;;;;7394876;19;20168;-90
2022/10/08 13:36:27;;;;;;;5.25;1.80;;;;;17.60;94597.00;;;;7393259;19;20494;-88
2022/10/08 13:39:22;;;;;;;3.65;1.30;;;;;16.40;94593.00;;;;7397849;19;20159;-90
2022/10/08 14:27:14;;;;;;;4.18;1.58;;;;;16.10;94579.00;;;;7335900;19;20152;-80
2022/10/08 14:30:04;;;;;;;4.72;1.33;;;;;15.80;94579.00;;;;7401000;19;20200;-80
2022/10/08 14:32:39;;;;;;;5.60;1.50;;;;;15.40;94594.00;;;;7419698;19;20536;-81
2022/10/08 16:48:25;;;;;;;7.32;1.75;;;;;10.80;94677.00;;;;4843176;29;20198;31
2022/10/08 16:51:07;;;;;;;10.00;4.93;;;;;10.60;94677.00;;;;7407742;19;20646;-80
2022/10/08 16:53:35;;;;;;;9.77;6.15;;;;;10.40;94671.00;;;;7408550;19;20510;-78
2022/10/08 16:58:57;;;;;;;3.22;1.67;;;;;10.30;94678.00;;;;7411868;19;20198;-79
2022/10/08 17:01:37;;;;;;;4.13;1.10;;;;;10.10;94679.00;;;;7423847;19;20181;-78
2022/10/08 17:06:54;;;;;;;3.03;1.35;;;;;9.80;94693.00;;;;7414693;19;20184;-80
2022/10/08 17:09:45;;;;;;;5.28;1.05;;;;;9.60;94698.00;;;;7387734;19;21056;-80
2022/10/08 17:12:20;;;;;;;6.20;1.50;;;;;9.70;94693.00;;;;7420131;19;20141;-78
2022/10/08 17:34:13;;;;;;;9.38;4.90;;;;;9.60;94723.00;;;;7350702;19;21066;-79
2022/10/08 17:36:58;;;;;;;7.07;2.20;;;;;9.60;94726.00;;;;7418708;19;20116;-79
2022/10/08 17:39:26;;;;;;;10.77;3.85;;;;;9.50;94717.00;;;;7423220;19;20160;-79
2022/10/08 17:42:06;;;;;;;11.03;4.73;;;;;9.30;94721.00;;;;7424032;19;20185;-82
2022/10/08 17:54:58;;;;;;;8.40;5.10;;;;;9.40;94739.00;;;;7335762;19;20140;31
2022/10/08 18:08:25;;;;;;;4.97;2.23;;;;;9.40;94748.00;;;;7340149;19;20141;31
2022/10/08 18:21:06;;;;;;;15.53;4.80;;;;;9.30;94757.00;;;;7378667;19;20647;-82
2022/10/08 18:23:41;;;;;;;8.50;2.73;;;;;9.10;94763.00;;;;7384936;19;20149;-80
2022/10/08 18:26:11;;;;;;;11.63;3.53;;;;;9.20;94765.00;;;;7386945;19;20152;-80
2022/10/08 18:28:39;;;;;;;6.63;4.07;;;;;9.10;94762.00;;;;7388408;19;20168;-83
2022/10/08 18:31:14;;;;;;;13.63;6.17;;;;;8.90;94767.00;;;;7386906;19;20731;-82
2022/10/08 18:33:44;;;;;;;9.15;3.47;;;;;9.10;94769.00;;;;7386593;19;20539;-80
2022/10/08 18:36:33;;;;;;;7.50;2.10;;;;;9.30;94774.00;;;;7387905;19;20192;-81
2022/10/08 18:39:22;;;;;;;12.80;8.97;;;;;9.10;94770.00;;;;7382830;19;20533;-81
2022/10/08 18:41:55;;;;;;;5.17;3.13;;;;;8.90;94774.00;;;;7385411;19;20631;-81
2022/10/08 18:44:32;;;;;;;14.60;12.10;;;;;9.50;94773.00;;;;7386128;19;20155;-80
2022/10/08 18:47:03;;;;;;;13.50;10.40;;;;;9.40;94777.00;;;;7386509;19;20161;-83
2022/10/08 18:49:41;;;;;;;17.80;13.13;;;;;9.30;94779.00;;;;7385938;19;20141;-80
2022/10/08 18:52:08;;;;;;;13.00;4.72;;;;;9.30;94777.00;;;;7383850;19;20519;-83
2022/10/08 18:54:43;;;;;;;13.13;7.50;;;;;9.40;94784.00;;;;7386532;19;20151;-79
2022/10/08 18:57:17;;;;;;;6.03;3.77;;;;;9.40;94781.00;;;;7384571;19;20491;-80
2022/10/08 18:59:45;;;;;;;7.93;3.80;;;;;9.80;94790.00;;;;7384991;19;20619;-77
2022/10/08 19:02:12;;;;;;;4.67;1.83;;;;;9.80;94787.00;;;;7385993;19;20918;-79
2022/10/08 19:04:48;;;;;;;9.93;3.97;;;;;9.80;94790.00;;;;7383969;19;20460;-79
2022/10/08 19:07:16;;;;;;;7.63;4.43;;;;;9.80;94789.00;;;;7385691;19;20487;-80
2022/10/08 19:09:45;;;;;;;22.13;12.87;;;;;9.90;94795.00;;;;7385938;19;20149;-79
2022/10/08 19:12:18;;;;;;;7.90;3.50;;;;;9.80;94800.00;;;;7385079;19;20172;-78
2022/10/08 19:14:49;;;;;;;3.47;1.70;;;;;9.80;94803.00;;;;7383084;19;20162;-79
2022/10/08 19:17:21;;;;;;;3.55;2.00;;;;;9.80;94801.00;;;;7382808;19;20141;-79
2022/10/08 19:20:02;;;;;;;8.77;1.50;;;;;9.80;94799.00;;;;7380843;19;20176;-78
2022/10/08 19:22:30;;;;;;;9.82;1.90;;;;;9.80;94806.00;;;;7384833;19;20144;-80
2022/10/08 19:25:07;;;;;;;5.63;2.58;;;;;10.00;94807.00;;;;7391365;19;20124;-78
2022/10/08 19:27:35;;;;;;;8.88;3.17;;;;;10.20;94813.00;;;;7389498;19;20140;-79
2022/10/08 19:30:03;;;;;;;8.32;3.20;;;;;10.30;94802.00;;;;7389040;19;20137;-80
2022/10/08 19:32:37;;;;;;;6.80;2.97;;;;;10.20;94809.00;;;;7388344;19;20467;-79
2022/10/08 19:35:05;;;;;;;3.45;2.28;;;;;10.30;94810.00;;;;7391427;19;20121;-78
2022/10/08 19:37:33;;;;;;;6.22;2.33;;;;;10.20;94814.00;;;;7390990;19;20180;-77
2022/10/08 19:40:07;;;;;;;4.03;2.20;;;;;10.20;94821.00;;;;7392650;19;20152;-78
2022/10/08 19:42:38;;;;;;;3.38;1.67;;;;;10.10;94818.00;;;;7391557;19;20140;-78
2022/10/08 19:45:06;;;;;;;2.80;1.55;;;;;10.10;94828.00;;;;7388776;19;20129;-79
2022/10/08 19:47:42;;;;;;;8.85;3.13;;;;;10.00;94829.00;;;;7390916;19;20132;-79
2022/10/08 19:50:10;;;;;;;5.70;3.95;;;;;10.20;94827.00;;;;7389797;19;20145;-78
2022/10/08 19:52:39;;;;;;;5.72;3.10;;;;;10.10;94830.00;;;;7386176;19;20187;-78
2022/10/08 19:55:20;;;;;;;8.60;2.75;;;;;9.90;94836.00;;;;7389669;19;20141;-80
2022/10/08 19:57:47;;;;;;;7.10;2.30;;;;;9.90;94836.00;;;;7393403;19;20222;-78
2022/10/08 20:00:22;;;;;;;9.48;2.67;;;;;10.10;94833.00;;;;7388232;19;20189;-78
2022/10/08 20:02:49;;;;;;;3.80;1.70;;;;;10.40;94833.00;;;;7388581;19;20144;-78
2022/10/08 20:05:18;;;;;;;8.32;2.60;;;;;10.10;94843.00;;;;7389125;19;20168;-77
2022/10/08 20:07:53;;;;;;;7.00;2.75;;;;;10.10;94838.00;;;;7388876;19;20167;-78
2022/10/08 20:10:20;;;;;;;5.03;2.40;;;;;10.00;94842.00;;;;7389629;19;20209;-78
2022/10/08 20:12:48;;;;;;;6.35;3.13;;;;;10.20;94839.00;;;;7388766;19;20179;-79
2022/10/08 20:15:23;;;;;;;5.60;2.10;;;;;10.20;94836.00;;;;7387823;19;20151;-78
2022/10/08 20:18:01;;;;;;;7.80;2.38;;;;;10.30;94840.00;;;;7389897;19;20156;-80
2022/10/08 20:20:50;;;;;;;4.18;1.70;;;;;10.20;94845.00;;;;7389455;19;20254;-79
2022/10/08 20:23:26;;;;;;;11.38;3.67;;;;;10.50;94851.00;;;;7387041;19;20616;-78
2022/10/08 20:26:15;;;;;;;6.85;2.20;;;;;10.30;94853.00;;;;7383144;19;20150;-79
2022/10/08 20:28:44;;;;;;;14.18;7.68;;;;;10.60;94849.00;;;;7386048;19;20153;-78
2022/10/08 20:31:25;;;;;;;45.22;25.63;;;;;10.70;94848.00;;;;7387584;19;20148;-80
2022/10/08 20:34:16;;;;;;;19.75;11.43;;;;;10.50;94856.00;;;;7392503;19;20128;-80
2022/10/08 20:36:51;;;;;;;6.85;3.45;;;;;10.40;94851.00;;;;7386851;19;20153;-78
2022/10/08 20:39:20;;;;;;;18.88;11.32;;;;;10.30;94851.00;;;;7388805;19;20614;-78
2022/10/08 20:41:48;;;;;;;10.93;6.18;;;;;10.40;94844.00;;;;7391453;19;20143;-77